Time;durP1;ratioP1;P1;durP2;ratioP2;P2;SDS_P1;SDS_P2;PMS_P1;PMS_P2;Temp;Humidity;BMP_temperature;BMP_pressure;BME280_temperature;BME280_humidity;BME280_pressure;Samples;Min_cycle;Max_cycle;Signal;HPM_P1;HPM_P2
2023/08/12 00:00:19;;;;;;;14.68;12.68;;;22.10;99.90;;;;;;5013544;28;20180;-48
2023/08/12 00:02:45;;;;;;;15.63;12.93;;;22.30;99.90;;;;;;5013885;28;20176;-47
2023/08/12 00:05:11;;;;;;;17.08;12.55;;;22.20;99.90;;;;;;5013349;28;20164;-48
2023/08/12 00:07:37;;;;;;;18.33;13.57;;;22.10;99.90;;;;;;5013557;28;20168;-49
2023/08/12 00:10:04;;;;;;;18.15;12.90;;;22.20;99.90;;;;;;5014208;28;20261;-47
2023/08/12 00:12:33;;;;;;;16.35;13.52;;;22.30;99.90;;;;;;5013694;28;20223;-47
2023/08/12 00:14:59;;;;;;;18.52;13.60;;;22.20;99.90;;;;;;5014013;28;20183;-48
2023/08/12 00:17:24;;;;;;;15.40;12.40;;;22.00;99.90;;;;;;5014165;28;21134;-47
2023/08/12 00:19:50;;;;;;;18.70;12.82;;;22.10;99.90;;;;;;5013844;28;20168;-47
2023/08/12 00:22:16;;;;;;;16.25;13.18;;;22.10;99.90;;;;;;5013883;28;20175;-46
2023/08/12 00:24:41;;;;;;;16.17;12.38;;;21.90;99.90;;;;;;5013528;28;20204;-48
2023/08/12 00:27:08;;;;;;;44.17;27.38;;;22.00;99.90;;;;;;5018159;28;20178;-48
2023/08/12 00:29:34;;;;;;;55.00;35.17;;;22.10;99.90;;;;;;5033439;28;20209;-48
2023/08/12 00:32:00;;;;;;;19.90;14.32;;;22.00;99.90;;;;;;5033314;28;20167;-48
2023/08/12 00:34:26;;;;;;;21.42;15.52;;;22.20;99.90;;;;;;5033345;28;20163;-48
2023/08/12 00:36:51;;;;;;;39.83;26.38;;;22.10;99.90;;;;;;5033284;28;20221;-47
2023/08/12 00:39:17;;;;;;;20.63;13.50;;;22.20;99.90;;;;;;5033540;28;20167;-47
2023/08/12 00:41:42;;;;;;;14.90;11.60;;;22.20;99.90;;;;;;5033143;28;20171;-47
2023/08/12 00:44:08;;;;;;;18.27;13.63;;;22.10;99.90;;;;;;5033189;28;20176;-47
2023/08/12 00:46:34;;;;;;;16.38;14.30;;;22.00;99.90;;;;;;5033485;28;20603;-47
2023/08/12 00:49:00;;;;;;;13.68;11.98;;;22.10;99.90;;;;;;5033439;28;20534;-47
2023/08/12 00:51:26;;;;;;;15.85;11.63;;;22.10;99.90;;;;;;5032810;28;20172;-46
2023/08/12 00:53:53;;;;;;;14.35;11.27;;;21.90;99.90;;;;;;5032590;28;20662;-46
2023/08/12 00:56:19;;;;;;;14.35;10.70;;;22.00;99.90;;;;;;5032310;28;20183;-47
2023/08/12 00:58:45;;;;;;;13.15;11.20;;;22.00;99.90;;;;;;5012710;28;20179;-46
2023/08/12 01:01:11;;;;;;;12.20;9.63;;;22.00;99.90;;;;;;5013053;28;20180;-46
2023/08/12 01:03:37;;;;;;;13.75;10.68;;;22.00;99.90;;;;;;5013027;28;20172;-48
2023/08/12 01:06:03;;;;;;;14.52;10.77;;;21.80;99.90;;;;;;5013203;28;20183;-47
2023/08/12 01:08:31;;;;;;;14.45;10.00;;;22.00;99.90;;;;;;5012860;28;20211;-47
2023/08/12 01:11:20;;;;;;;15.50;9.70;;;21.80;99.90;;;;;;5012610;28;20239;-47
2023/08/12 01:14:12;;;;;;;18.00;9.25;;;21.90;99.90;;;;;;5012620;28;20303;-47
2023/08/12 01:16:41;;;;;;;15.63;9.70;;;21.90;99.90;;;;;;5012812;28;20666;-46
2023/08/12 01:19:11;;;;;;;14.13;9.15;;;21.90;99.90;;;;;;5012581;28;20667;-46
2023/08/12 01:21:43;;;;;;;11.20;8.90;;;21.80;99.90;;;;;;5012565;28;20164;-46
2023/08/12 01:24:08;;;;;;;12.73;9.63;;;21.70;99.90;;;;;;5012561;28;20203;-46
2023/08/12 01:26:34;;;;;;;13.18;9.65;;;21.70;99.90;;;;;;5014696;28;20175;-46
2023/08/12 01:29:00;;;;;;;12.52;9.88;;;21.80;99.90;;;;;;5030114;28;20639;-46
2023/08/12 01:31:37;;;;;;;12.25;10.63;;;21.80;99.90;;;;;;5032072;28;20650;-46
2023/08/12 01:34:08;;;;;;;17.55;11.38;;;21.70;99.90;;;;;;5032617;28;20647;-47
2023/08/12 01:36:38;;;;;;;15.30;11.13;;;21.90;99.90;;;;;;5032584;28;20579;-46
2023/08/12 01:39:06;;;;;;;16.92;11.73;;;21.80;99.90;;;;;;5047423;28;20631;-46
2023/08/12 01:41:31;;;;;;;17.08;13.15;;;21.90;99.90;;;;;;5032525;28;20171;-47
2023/08/12 01:43:57;;;;;;;17.35;14.10;;;21.80;99.90;;;;;;5032012;28;20532;-46
2023/08/12 01:46:23;;;;;;;16.92;14.27;;;21.80;99.90;;;;;;5030750;28;20178;-46
2023/08/12 01:48:48;;;;;;;17.88;13.75;;;21.60;99.90;;;;;;5030580;28;20254;-47
2023/08/12 01:51:14;;;;;;;18.00;14.07;;;21.80;99.90;;;;;;5031937;28;20225;-46
2023/08/12 01:53:39;;;;;;;17.13;15.27;;;21.60;99.90;;;;;;5031790;28;20178;-46
2023/08/12 01:56:05;;;;;;;17.20;14.75;;;21.70;99.90;;;;;;5031900;28;20171;-47
2023/08/12 01:58:31;;;;;;;17.95;15.45;;;21.90;99.90;;;;;;5030543;28;20178;-46
2023/08/12 02:00:56;;;;;;;18.10;15.18;;;21.70;99.90;;;;;;5011935;28;20664;-46
2023/08/12 02:03:22;;;;;;;22.30;16.27;;;21.80;99.90;;;;;;5011811;28;20628;-46
2023/08/12 02:05:47;;;;;;;18.75;15.43;;;21.80;99.90;;;;;;5011785;28;20170;-46
2023/08/12 02:08:13;;;;;;;21.60;16.73;;;21.70;99.90;;;;;;5011909;28;20168;-47
2023/08/12 02:10:38;;;;;;;20.45;16.05;;;21.80;99.90;;;;;;5010960;28;20254;-47
2023/08/12 02:13:04;;;;;;;20.23;16.05;;;21.70;99.90;;;;;;5012006;28;20216;-46
2023/08/12 02:15:30;;;;;;;21.60;16.40;;;21.90;99.90;;;;;;5012166;28;20172;-46
2023/08/12 02:17:55;;;;;;;24.90;16.90;;;21.60;99.90;;;;;;5011657;28;20647;-46
2023/08/12 02:20:21;;;;;;;20.90;17.25;;;21.80;99.90;;;;;;5011318;28;20217;-46
2023/08/12 02:22:46;;;;;;;21.55;16.48;;;21.70;99.90;;;;;;5016126;28;20253;-47
2023/08/12 02:25:12;;;;;;;20.45;17.67;;;21.70;99.90;;;;;;5031076;28;20170;-47
2023/08/12 02:27:38;;;;;;;22.13;16.50;;;21.90;99.90;;;;;;5031737;28;20171;-48
2023/08/12 02:30:04;;;;;;;21.52;16.45;;;21.80;99.90;;;;;;5031426;28;20210;-47
2023/08/12 02:32:29;;;;;;;20.95;17.10;;;21.70;99.90;;;;;;5031887;28;20506;-49
2023/08/12 02:34:55;;;;;;;20.00;16.75;;;21.70;99.90;;;;;;5031403;28;20178;-48
2023/08/12 02:37:21;;;;;;;19.23;16.10;;;21.70;99.90;;;;;;5031276;28;20533;-48
2023/08/12 02:39:46;;;;;;;22.45;16.52;;;21.70;99.90;;;;;;5031371;28;20646;-48
2023/08/12 02:42:12;;;;;;;20.75;16.25;;;21.70;99.90;;;;;;5031412;28;20175;-48
2023/08/12 02:44:37;;;;;;;21.40;15.60;;;21.70;99.90;;;;;;5031302;28;20579;-48
2023/08/12 02:47:03;;;;;;;18.25;14.55;;;21.50;99.90;;;;;;5031715;28;20627;-47
2023/08/12 02:49:29;;;;;;;16.50;14.18;;;21.60;99.90;;;;;;5031196;28;20199;-48
2023/08/12 02:51:54;;;;;;;20.13;15.32;;;21.60;99.90;;;;;;5031398;28;20175;-47
2023/08/12 02:54:20;;;;;;;18.50;14.55;;;21.60;99.90;;;;;;5031264;28;20734;-49
2023/08/12 02:56:45;;;;;;;17.27;14.48;;;21.50;99.90;;;;;;5031184;28;20532;-48
2023/08/12 02:59:11;;;;;;;20.42;14.93;;;21.60;99.90;;;;;;5030571;28;20648;-48
2023/08/12 03:01:36;;;;;;;20.20;16.88;;;21.60;99.90;;;;;;5031059;28;20164;-49
2023/08/12 03:04:02;;;;;;;20.35;16.02;;;21.60;99.90;;;;;;5031624;28;20650;-49
2023/08/12 03:06:28;;;;;;;20.02;15.73;;;21.60;99.90;;;;;;5031409;28;20695;-49
2023/08/12 03:08:53;;;;;;;23.05;17.30;;;21.80;99.90;;;;;;5030608;28;20205;-47
2023/08/12 03:11:19;;;;;;;20.88;17.05;;;21.70;99.90;;;;;;5030954;28;20168;-48
2023/08/12 03:13:45;;;;;;;26.70;16.77;;;21.80;99.90;;;;;;5030935;28;20227;-48
2023/08/12 03:16:14;;;;;;;22.20;19.05;;;21.50;99.90;;;;;;5029524;28;20190;-48
2023/08/12 03:18:41;;;;;;;20.15;17.92;;;21.60;99.90;;;;;;5031004;28;20171;-48
2023/08/12 03:21:08;;;;;;;35.95;24.05;;;21.70;99.90;;;;;;5031109;28;20178;-48
2023/08/12 03:23:35;;;;;;;29.33;18.35;;;21.50;99.90;;;;;;5035036;28;20174;-48
2023/08/12 03:26:01;;;;;;;39.83;26.67;;;21.60;99.90;;;;;;5035067;28;20168;-48
2023/08/12 03:28:26;;;;;;;27.52;21.10;;;21.60;99.90;;;;;;5032089;28;20627;-48
2023/08/12 03:30:53;;;;;;;26.88;21.70;;;21.80;99.90;;;;;;5014184;28;20214;-48
2023/08/12 03:33:18;;;;;;;31.48;22.35;;;21.60;99.90;;;;;;5014231;28;20215;-48
2023/08/12 03:35:50;;;;;;;26.52;21.25;;;21.70;99.90;;;;;;5014220;28;20309;-49
2023/08/12 03:38:16;;;;;;;33.08;23.75;;;21.70;99.90;;;;;;5014060;28;20198;-48
2023/08/12 03:40:42;;;;;;;27.92;22.02;;;21.50;99.90;;;;;;5014393;28;20168;-49
2023/08/12 03:43:08;;;;;;;27.38;22.80;;;21.70;99.90;;;;;;5014068;28;20169;-48
2023/08/12 03:45:43;;;;;;;38.47;26.67;;;21.60;99.90;;;;;;5014665;28;20230;-49
2023/08/12 03:48:09;;;;;;;33.78;26.20;;;21.60;99.90;;;;;;5014014;28;20692;-49
2023/08/12 03:50:39;;;;;;;35.40;25.25;;;21.50;99.90;;;;;;5013654;28;20219;-47
2023/08/12 03:53:05;;;;;;;29.50;24.65;;;21.50;99.90;;;;;;5014198;28;20567;-47
2023/08/12 03:55:32;;;;;;;43.88;31.50;;;21.50;99.90;;;;;;5014094;28;20176;-48
2023/08/12 03:57:58;;;;;;;42.30;31.63;;;21.50;99.90;;;;;;5013877;28;20194;-48
2023/08/12 04:00:24;;;;;;;35.08;28.50;;;21.30;99.90;;;;;;5031626;28;20651;-47
2023/08/12 04:02:49;;;;;;;39.72;28.08;;;21.30;99.90;;;;;;5033406;28;20206;-48
2023/08/12 04:05:15;;;;;;;68.72;45.22;;;21.40;99.90;;;;;;5033454;28;20670;-48
2023/08/12 04:07:40;;;;;;;56.88;39.17;;;21.30;99.90;;;;;;5032110;28;20627;-48
2023/08/12 04:10:06;;;;;;;33.13;26.27;;;21.30;99.90;;;;;;5032976;28;20544;-48
2023/08/12 04:12:32;;;;;;;35.38;26.83;;;21.30;99.90;;;;;;5033613;28;20627;-48
2023/08/12 04:14:58;;;;;;;33.67;25.60;;;21.30;99.90;;;;;;5033201;28;20226;-48
2023/08/12 04:17:23;;;;;;;32.75;27.27;;;21.40;99.90;;;;;;5031464;28;20179;-49
2023/08/12 04:19:49;;;;;;;33.85;27.27;;;21.40;99.90;;;;;;5033300;28;20175;-47
2023/08/12 04:22:15;;;;;;;53.63;37.72;;;21.40;99.90;;;;;;5033279;28;20168;-48
2023/08/12 04:24:42;;;;;;;35.88;27.77;;;21.20;99.90;;;;;;5033098;28;20194;-49
2023/08/12 04:27:07;;;;;;;35.25;29.50;;;21.20;99.90;;;;;;5032939;28;20555;-48
2023/08/12 04:29:34;;;;;;;40.03;29.70;;;21.40;99.90;;;;;;5031607;28;20674;-49
2023/08/12 04:32:00;;;;;;;45.08;34.35;;;21.40;99.90;;;;;;5033195;28;20175;-49
2023/08/12 04:34:25;;;;;;;40.67;31.83;;;21.20;99.90;;;;;;5032355;28;20172;-48
2023/08/12 04:36:51;;;;;;;38.45;30.60;;;21.20;99.90;;;;;;5033108;28;20592;-48
2023/08/12 04:39:16;;;;;;;35.78;28.95;;;21.20;99.90;;;;;;5032889;28;20167;-48
2023/08/12 04:41:42;;;;;;;33.67;28.25;;;21.50;99.90;;;;;;5032689;28;20198;-49
2023/08/12 04:44:07;;;;;;;42.63;33.95;;;21.40;99.90;;;;;;5032691;28;20171;-47
2023/08/12 04:46:33;;;;;;;30.45;25.90;;;21.20;99.90;;;;;;5033092;28;20167;-46
2023/08/12 04:48:58;;;;;;;31.90;28.33;;;21.50;99.90;;;;;;5032618;28;20168;-47
2023/08/12 04:51:24;;;;;;;32.42;26.02;;;21.50;99.90;;;;;;5032548;28;20176;-47
2023/08/12 04:53:50;;;;;;;33.20;26.20;;;20.70;99.90;;;;;;5032759;28;20525;-46
2023/08/12 04:56:15;;;;;;;45.22;34.95;;;21.30;99.90;;;;;;5032283;28;20167;-46
2023/08/12 04:58:41;;;;;;;31.75;28.35;;;21.30;99.90;;;;;;5028232;28;20561;-46
2023/08/12 05:01:08;;;;;;;29.48;26.05;;;21.60;99.90;;;;;;5012542;28;20223;-46
2023/08/12 05:03:33;;;;;;;61.17;39.78;;;21.40;99.90;;;;;;5013159;28;20175;-46
2023/08/12 05:05:59;;;;;;;35.10;27.33;;;21.50;99.90;;;;;;5011647;28;20547;-46
2023/08/12 05:08:25;;;;;;;32.60;25.38;;;21.70;99.90;;;;;;5012936;28;20168;-46
2023/08/12 05:10:51;;;;;;;67.35;40.92;;;21.70;99.90;;;;;;5012388;28;20212;-46
2023/08/12 05:13:17;;;;;;;25.42;20.60;;;21.50;99.90;;;;;;5012260;28;20238;-48
2023/08/12 05:15:48;;;;;;;54.65;32.33;;;21.60;99.90;;;;;;5012460;28;20222;-47
2023/08/12 05:18:15;;;;;;;32.08;21.52;;;21.50;99.90;;;;;;5012316;28;20171;-46
2023/08/12 05:20:41;;;;;;;28.90;22.33;;;21.40;99.90;;;;;;5012603;28;20186;-47
2023/08/12 05:23:07;;;;;;;27.30;21.20;;;21.60;99.90;;;;;;5012253;28;20210;-48
2023/08/12 05:25:33;;;;;;;32.75;24.00;;;21.80;99.90;;;;;;5012645;28;20176;-47
2023/08/12 05:27:58;;;;;;;31.65;23.20;;;21.50;99.90;;;;;;5012227;28;20179;-47
2023/08/12 05:30:24;;;;;;;26.25;20.92;;;21.30;99.90;;;;;;5029613;28;20214;-49
2023/08/12 05:32:49;;;;;;;39.55;26.10;;;21.60;99.90;;;;;;5031668;28;20179;-47
2023/08/12 05:35:15;;;;;;;19.88;16.52;;;21.50;99.90;;;;;;5031916;28;20550;-49
2023/08/12 05:37:41;;;;;;;21.38;17.45;;;21.30;99.90;;;;;;5031791;28;20159;-49
2023/08/12 05:40:09;;;;;;;21.48;17.63;;;21.50;99.90;;;;;;5031909;28;20172;-47
2023/08/12 05:42:35;;;;;;;25.30;17.63;;;21.30;99.90;;;;;;5031677;28;20179;-46
2023/08/12 05:45:01;;;;;;;20.73;18.58;;;21.40;99.90;;;;;;5031021;28;20175;-50
2023/08/12 05:47:27;;;;;;;26.45;23.20;;;21.50;99.90;;;;;;5031717;28;20186;-50
2023/08/12 05:49:53;;;;;;;35.05;23.95;;;21.60;99.90;;;;;;5031753;28;20225;-50
2023/08/12 05:52:18;;;;;;;30.23;23.55;;;21.30;99.90;;;;;;5031580;28;20265;-50
2023/08/12 05:54:44;;;;;;;28.63;22.13;;;21.30;99.90;;;;;;5031626;28;20175;-50
2023/08/12 05:57:09;;;;;;;24.33;21.05;;;21.30;99.90;;;;;;5031448;28;20258;-49
2023/08/12 05:59:35;;;;;;;26.00;19.70;;;21.20;99.90;;;;;;5030943;28;20179;-47
2023/08/12 06:02:00;;;;;;;23.58;19.48;;;21.30;99.90;;;;;;5031837;28;20170;-49
2023/08/12 06:04:26;;;;;;;18.88;16.88;;;21.40;99.90;;;;;;5031376;28;20176;-49
2023/08/12 06:06:52;;;;;;;18.17;15.27;;;21.10;99.90;;;;;;5030088;28;20171;-49
2023/08/12 06:09:18;;;;;;;18.88;13.32;;;21.20;99.90;;;;;;5011393;28;20207;-50
2023/08/12 06:11:43;;;;;;;14.25;10.98;;;21.00;99.90;;;;;;5011435;28;20180;-49
2023/08/12 06:14:11;;;;;;;11.48;8.57;;;21.20;99.90;;;;;;5011247;28;20172;-50
2023/08/12 06:16:37;;;;;;;15.57;9.88;;;21.10;99.90;;;;;;5011371;28;20246;-50
2023/08/12 06:19:03;;;;;;;11.77;9.35;;;21.00;99.90;;;;;;5011583;28;20239;-49
2023/08/12 06:21:28;;;;;;;11.23;9.23;;;20.90;99.90;;;;;;5011398;28;20714;-49
2023/08/12 06:23:55;;;;;;;12.73;10.82;;;20.80;99.90;;;;;;5011233;28;20698;-50
2023/08/12 06:26:20;;;;;;;13.55;10.25;;;22.80;99.90;;;;;;5011257;28;20226;-49
2023/08/12 06:28:46;;;;;;;12.88;10.52;;;20.90;99.90;;;;;;5014283;28;20171;-50
2023/08/12 06:31:11;;;;;;;11.85;10.15;;;20.80;99.90;;;;;;5030652;28;20242;-49
2023/08/12 06:33:37;;;;;;;11.05;7.85;;;20.80;99.90;;;;;;5030921;28;20191;-49
2023/08/12 06:36:03;;;;;;;10.52;9.25;;;20.80;99.90;;;;;;5031450;28;20652;-49
2023/08/12 06:38:28;;;;;;;9.43;8.35;;;21.00;99.90;;;;;;5031129;28;20191;-49
2023/08/12 06:40:54;;;;;;;15.23;9.32;;;21.10;99.90;;;;;;5030841;28;20658;-51
2023/08/12 06:43:20;;;;;;;13.20;9.00;;;21.00;99.90;;;;;;5030806;28;20175;-52
2023/08/12 06:45:46;;;;;;;11.05;9.35;;;21.10;99.90;;;;;;5029916;28;20182;-53
2023/08/12 06:48:12;;;;;;;13.63;9.50;;;21.40;99.90;;;;;;5030842;28;20202;-52
2023/08/12 06:50:37;;;;;;;8.85;7.97;;;21.70;99.90;;;;;;5030741;28;20225;-49
2023/08/12 06:53:03;;;;;;;10.70;8.38;;;21.80;99.90;;;;;;5031447;28;20167;-49
2023/08/12 06:55:28;;;;;;;9.32;8.18;;;21.80;99.90;;;;;;5030900;28;20186;-49
2023/08/12 06:57:54;;;;;;;8.05;7.35;;;21.70;99.90;;;;;;5034353;28;20159;-49
2023/08/12 07:00:20;;;;;;;9.85;6.82;;;21.80;99.90;;;;;;5017043;28;20222;-49
2023/08/12 07:02:45;;;;;;;8.63;7.28;;;21.70;99.90;;;;;;5015443;28;20171;-50
2023/08/12 07:05:11;;;;;;;7.60;6.03;;;21.70;99.90;;;;;;5015471;28;20172;-51
2023/08/12 07:07:36;;;;;;;6.72;5.90;;;21.80;99.90;;;;;;5024256;28;20534;-50
2023/08/12 07:10:03;;;;;;;6.25;5.18;;;21.90;99.90;;;;;;5035111;28;20214;-50
2023/08/12 07:12:28;;;;;;;5.63;4.78;;;21.80;99.90;;;;;;5035097;28;20223;-51
2023/08/12 07:14:54;;;;;;;5.60;4.55;;;22.00;99.90;;;;;;5035009;28;20225;-50
2023/08/12 07:17:19;;;;;;;7.22;4.38;;;22.00;99.90;;;;;;5034979;28;20519;-52
2023/08/12 07:19:45;;;;;;;4.50;3.80;;;22.00;99.90;;;;;;5034972;28;20546;-52
2023/08/12 07:22:10;;;;;;;6.75;3.92;;;21.90;99.90;;;;;;5034787;28;20654;-52
2023/08/12 07:24:36;;;;;;;6.38;4.10;;;22.10;99.90;;;;;;5034858;28;20643;-51
2023/08/12 07:27:02;;;;;;;6.90;3.90;;;22.00;99.90;;;;;;5035131;28;20203;-52
2023/08/12 07:29:27;;;;;;;6.20;3.88;;;21.80;99.90;;;;;;5023374;28;20215;-52
2023/08/12 07:31:53;;;;;;;5.55;3.85;;;21.70;99.90;;;;;;5014667;28;20168;-52
2023/08/12 07:34:19;;;;;;;6.78;4.28;;;21.80;99.90;;;;;;5014210;28;20556;-52
2023/08/12 07:36:45;;;;;;;5.50;4.53;;;21.70;99.90;;;;;;5014509;28;20179;-53
2023/08/12 07:39:11;;;;;;;4.47;4.07;;;21.70;99.90;;;;;;5014266;28;20314;-53
2023/08/12 07:41:37;;;;;;;5.80;3.95;;;21.60;99.90;;;;;;5013898;28;20211;-51
2023/08/12 07:44:03;;;;;;;5.22;3.88;;;21.70;99.90;;;;;;5014925;28;20183;-51
2023/08/12 07:46:29;;;;;;;5.03;3.47;;;21.60;99.90;;;;;;5014320;28;20171;-51
2023/08/12 07:48:56;;;;;;;3.40;3.10;;;21.70;99.90;;;;;;5014002;28;20542;-51
2023/08/12 07:51:21;;;;;;;4.38;3.40;;;21.70;99.90;;;;;;5013778;28;20206;-47
2023/08/12 07:53:47;;;;;;;6.70;3.72;;;21.80;99.90;;;;;;5014270;28;20168;-48
2023/08/12 07:56:12;;;;;;;3.50;3.20;;;21.90;99.90;;;;;;5013940;28;20579;-47
2023/08/12 07:58:38;;;;;;;4.18;3.10;;;21.90;99.90;;;;;;5017114;28;20167;-47
2023/08/12 08:01:04;;;;;;;6.78;3.20;;;21.90;99.90;;;;;;5033634;28;20555;-46
2023/08/12 08:03:30;;;;;;;4.50;2.80;;;22.10;99.90;;;;;;5033867;28;20170;-53
2023/08/12 08:05:56;;;;;;;4.43;2.90;;;22.00;99.90;;;;;;5033476;28;20531;-46
2023/08/12 08:08:21;;;;;;;7.35;3.35;;;22.10;99.90;;;;;;5032531;28;20502;-47
2023/08/12 08:10:47;;;;;;;5.75;3.15;;;22.20;99.90;;;;;;5033479;28;20218;-45
2023/08/12 08:13:13;;;;;;;4.03;2.85;;;22.30;99.90;;;;;;5033123;28;20225;-46
2023/08/12 08:15:38;;;;;;;5.22;2.40;;;22.50;99.90;;;;;;5032058;28;20640;-47
2023/08/12 08:18:04;;;;;;;3.67;2.50;;;22.50;99.90;;;;;;5033408;28;20209;-47
2023/08/12 08:20:30;;;;;;;4.15;2.70;;;22.40;99.90;;;;;;5033988;28;20623;-45
2023/08/12 08:22:56;;;;;;;2.40;2.20;;;22.50;99.90;;;;;;5033469;28;20175;-50
2023/08/12 08:25:22;;;;;;;5.45;2.83;;;22.60;99.90;;;;;;5033117;28;20734;-46
2023/08/12 08:27:48;;;;;;;3.47;2.67;;;22.60;99.90;;;;;;5033047;28;20557;-47
2023/08/12 08:30:14;;;;;;;7.18;2.70;;;22.50;99.90;;;;;;5012505;28;20212;-47
2023/08/12 08:32:40;;;;;;;3.78;2.75;;;22.30;99.90;;;;;;5013137;28;20640;-50
2023/08/12 08:35:06;;;;;;;5.95;3.30;;;22.30;99.90;;;;;;5013327;28;20178;-50
2023/08/12 08:37:32;;;;;;;8.13;3.33;;;22.30;99.90;;;;;;5013489;28;20167;-48
2023/08/12 08:39:57;;;;;;;7.93;3.47;;;22.40;99.90;;;;;;5013078;28;20168;-51
2023/08/12 08:42:24;;;;;;;7.68;4.10;;;22.30;99.90;;;;;;5013086;28;20406;-50
2023/08/12 08:44:53;;;;;;;12.32;4.72;;;22.40;99.90;;;;;;5012981;28;20263;-50
2023/08/12 08:47:26;;;;;;;10.45;4.82;;;22.30;99.90;;;;;;5013292;28;20172;-52
2023/08/12 08:49:54;;;;;;;8.73;3.75;;;22.20;99.90;;;;;;5012809;28;20196;-50
2023/08/12 08:52:21;;;;;;;13.32;3.85;;;22.40;99.90;;;;;;5011521;28;20234;-49
2023/08/12 08:54:47;;;;;;;4.80;3.03;;;22.50;99.90;;;;;;5012811;28;20168;-50
2023/08/12 08:57:13;;;;;;;5.63;3.22;;;22.50;99.90;;;;;;5012968;28;20183;-51
2023/08/12 08:59:39;;;;;;;7.22;3.00;;;22.70;99.90;;;;;;5026947;28;20226;-48
2023/08/12 09:02:07;;;;;;;8.77;3.40;;;22.70;99.90;;;;;;5032506;28;20678;-47
2023/08/12 09:04:32;;;;;;;7.55;3.70;;;22.80;99.90;;;;;;5032766;28;20179;-49
2023/08/12 09:06:59;;;;;;;5.50;3.45;;;23.10;99.90;;;;;;5032300;28;20163;-46
2023/08/12 09:09:26;;;;;;;10.40;3.90;;;23.10;99.90;;;;;;5031068;28;20210;-46
2023/08/12 09:11:55;;;;;;;3.42;2.75;;;23.40;99.90;;;;;;5032250;28;20230;-53
2023/08/12 09:14:21;;;;;;;5.50;2.53;;;23.60;99.90;;;;;;5030857;28;20301;-46
2023/08/12 09:16:47;;;;;;;5.63;3.17;;;23.50;99.90;;;;;;5032173;28;20163;-45
2023/08/12 09:19:13;;;;;;;7.10;3.15;;;23.70;99.90;;;;;;5032012;28;20189;-47
2023/08/12 09:21:38;;;;;;;9.30;2.88;;;23.80;99.90;;;;;;5031956;28;20170;-47
2023/08/12 09:24:04;;;;;;;2.40;2.20;;;23.60;99.90;;;;;;5031926;28;20174;-46
2023/08/12 09:26:33;;;;;;;3.97;2.47;;;23.50;99.90;;;;;;5031150;28;20233;-47
2023/08/12 09:29:00;;;;;;;4.13;2.50;;;23.40;99.90;;;;;;5031738;28;20171;-46
2023/08/12 09:31:30;;;;;;;2.50;1.65;;;23.60;99.90;;;;;;5031771;28;20210;-47
2023/08/12 09:34:03;;;;;;;5.25;2.38;;;23.60;99.90;;;;;;5031895;28;20565;-47
2023/08/12 09:36:32;;;;;;;4.00;2.10;;;23.70;99.90;;;;;;5032275;28;20213;-47
2023/08/12 09:38:58;;;;;;;1.77;1.67;;;23.90;99.90;;;;;;5031801;28;20171;-46
2023/08/12 09:41:26;;;;;;;4.15;1.73;;;24.10;99.90;;;;;;5031821;28;20239;-47
2023/08/12 09:43:56;;;;;;;2.50;1.70;;;23.90;99.90;;;;;;5031699;28;20202;-47
2023/08/12 09:46:23;;;;;;;3.72;1.77;;;23.90;99.90;;;;;;5031828;28;20213;-46
2023/08/12 09:48:51;;;;;;;1.95;1.40;;;24.00;99.90;;;;;;5031942;28;20665;-47
2023/08/12 09:51:17;;;;;;;1.35;1.20;;;24.00;99.90;;;;;;5031394;28;20214;-46
2023/08/12 09:53:43;;;;;;;3.63;1.40;;;23.80;99.90;;;;;;5031508;28;20162;-47
2023/08/12 09:56:14;;;;;;;2.22;1.70;;;23.80;99.90;;;;;;5030382;28;20631;-44
2023/08/12 09:58:42;;;;;;;1.50;1.40;;;23.60;99.90;;;;;;5025840;28;20620;-44
2023/08/12 10:01:10;;;;;;;3.70;1.88;;;23.50;99.90;;;;;;5011724;28;20519;-49
2023/08/12 10:03:36;;;;;;;1.73;1.60;;;23.40;99.90;;;;;;5011546;28;20164;-47
2023/08/12 10:06:03;;;;;;;1.50;1.40;;;23.40;99.90;;;;;;5012059;28;20632;-46
2023/08/12 10:08:29;;;;;;;5.97;1.77;;;23.30;99.90;;;;;;5011917;28;20172;-47
2023/08/12 10:10:54;;;;;;;2.30;1.40;;;23.20;99.90;;;;;;5011337;28;20206;-51
2023/08/12 10:13:22;;;;;;;5.32;1.50;;;23.20;99.90;;;;;;5011263;28;20219;-47
2023/08/12 10:15:49;;;;;;;1.67;1.40;;;23.10;99.90;;;;;;5011413;28;20171;-47
2023/08/12 10:18:15;;;;;;;2.45;1.38;;;23.20;99.90;;;;;;5011391;28;20195;-46
2023/08/12 10:20:43;;;;;;;3.15;1.30;;;23.30;99.90;;;;;;5011358;28;20636;-47
2023/08/12 10:23:16;;;;;;;2.20;1.30;;;23.50;99.90;;;;;;5011291;28;20178;-46
2023/08/12 10:25:43;;;;;;;1.65;1.30;;;23.90;99.90;;;;;;5011458;28;20628;-46
2023/08/12 10:28:09;;;;;;;2.53;1.40;;;24.00;99.90;;;;;;5014302;28;20181;-47
2023/08/12 10:30:35;;;;;;;1.73;1.17;;;23.90;99.90;;;;;;5030312;28;20203;-46
2023/08/12 10:33:01;;;;;;;1.65;1.20;;;24.10;99.90;;;;;;5030584;28;20703;-47
2023/08/12 10:35:47;;;;;;;1.80;1.50;;;24.10;99.90;;;;;;5031008;28;20178;-51
2023/08/12 10:38:20;;;;;;;2.42;1.30;;;23.90;99.90;;;;;;5030564;28;20201;-52
2023/08/12 10:40:46;;;;;;;2.58;1.30;;;23.70;99.90;;;;;;5031068;28;20182;-49
2023/08/12 10:43:16;;;;;;;3.05;1.20;;;23.60;99.90;;;;;;5030894;28;20187;-46
2023/08/12 10:45:48;;;;;;;4.30;1.50;;;23.70;99.90;;;;;;5030866;28;20257;-46
2023/08/12 10:48:19;;;;;;;6.28;1.60;;;23.50;99.90;;;;;;5030166;28;20232;-47
2023/08/12 10:50:48;;;;;;;1.58;1.30;;;23.40;99.90;;;;;;5030730;28;20210;-48
2023/08/12 10:53:27;;;;;;;1.08;1.05;;;23.40;99.90;;;;;;5030519;28;20257;-53
2023/08/12 10:55:58;;;;;;;2.55;1.27;;;23.20;99.90;;;;;;5030426;28;21275;-49
2023/08/12 10:58:34;;;;;;;1.35;1.25;;;23.20;99.90;;;;;;5024495;28;20263;-52
2023/08/12 11:01:00;;;;;;;1.50;1.33;;;23.10;99.90;;;;;;5010690;28;20194;-53
2023/08/12 11:03:33;;;;;;;1.40;1.30;;;23.10;99.90;;;;;;5010442;28;20168;-52
2023/08/12 11:06:02;;;;;;;1.48;1.35;;;23.10;99.90;;;;;;5011062;28;20628;-50
2023/08/12 11:08:29;;;;;;;2.13;1.50;;;23.00;99.90;;;;;;5010969;28;20650;-52
2023/08/12 11:10:59;;;;;;;2.58;1.88;;;22.90;99.90;;;;;;5008717;28;20303;-47
2023/08/12 11:13:27;;;;;;;2.03;1.80;;;22.70;99.90;;;;;;5008681;28;20626;-46
2023/08/12 11:16:12;;;;;;;3.22;1.88;;;22.70;99.90;;;;;;5010134;28;20536;-52
2023/08/12 11:18:39;;;;;;;2.95;1.50;;;22.50;99.90;;;;;;5010295;28;20199;-53
2023/08/12 11:21:05;;;;;;;2.05;1.55;;;22.50;99.90;;;;;;5010191;28;20248;-52
2023/08/12 11:23:32;;;;;;;1.88;1.30;;;22.70;99.90;;;;;;5010974;28;20172;-50
2023/08/12 11:25:58;;;;;;;2.42;1.50;;;22.70;99.90;;;;;;5010996;28;20160;-46
2023/08/12 11:28:25;;;;;;;2.88;1.48;;;23.00;99.90;;;;;;5015113;28;20278;-53
2023/08/12 11:30:51;;;;;;;2.63;1.40;;;23.10;99.90;;;;;;5029780;28;20804;-53
2023/08/12 11:33:20;;;;;;;2.25;1.52;;;23.20;99.90;;;;;;5030212;28;20298;-53
2023/08/12 11:35:47;;;;;;;2.28;1.50;;;23.30;99.90;;;;;;5030165;28;20163;-53
2023/08/12 11:38:15;;;;;;;2.13;1.40;;;23.50;99.90;;;;;;5030082;28;20175;-52
2023/08/12 11:40:42;;;;;;;1.85;1.50;;;23.60;99.90;;;;;;5028907;28;20268;-51
2023/08/12 11:43:10;;;;;;;3.15;1.48;;;23.50;99.90;;;;;;5031663;28;20210;-46
2023/08/12 11:45:42;;;;;;;1.50;1.40;;;23.40;99.90;;;;;;5033515;28;20301;-45
2023/08/12 11:48:09;;;;;;;2.15;1.60;;;23.50;99.90;;;;;;5033654;28;20155;-50
2023/08/12 11:50:34;;;;;;;2.67;1.63;;;23.70;99.90;;;;;;5033385;28;20337;-53
2023/08/12 11:53:00;;;;;;;4.05;1.70;;;23.80;99.90;;;;;;5033743;28;20242;-51
2023/08/12 11:55:26;;;;;;;3.13;1.50;;;23.70;99.90;;;;;;5032576;28;20185;-51
2023/08/12 11:57:54;;;;;;;1.67;1.42;;;23.80;99.90;;;;;;5032512;28;20158;-51
2023/08/12 12:00:24;;;;;;;3.70;1.50;;;23.90;99.90;;;;;;5012320;28;20221;-52
2023/08/12 12:02:53;;;;;;;4.38;1.38;;;24.20;99.90;;;;;;5013640;28;20174;-49
2023/08/12 12:05:22;;;;;;;1.30;1.20;;;26.20;99.90;;;;;;5013936;28;20563;-48
2023/08/12 12:07:49;;;;;;;1.65;1.52;;;24.20;99.90;;;;;;5013167;28;20167;-53
2023/08/12 12:10:27;;;;;;;1.95;1.40;;;24.00;99.90;;;;;;5013461;28;20246;-45
2023/08/12 12:12:59;;;;;;;1.48;1.38;;;24.30;99.90;;;;;;5012380;28;20215;-52
2023/08/12 12:15:25;;;;;;;3.08;1.50;;;24.70;99.90;;;;;;5011955;28;20651;-49
2023/08/12 12:17:51;;;;;;;3.35;1.92;;;25.00;99.90;;;;;;5013330;28;20182;-48
2023/08/12 12:20:21;;;;;;;1.50;1.20;;;25.10;99.90;;;;;;5013369;28;20623;-52
2023/08/12 12:22:47;;;;;;;2.03;1.70;;;25.00;99.90;;;;;;5013289;28;20548;-52
2023/08/12 12:25:15;;;;;;;2.03;1.48;;;24.90;99.90;;;;;;5013206;28;20696;-46
2023/08/12 12:27:43;;;;;;;1.67;1.48;;;24.80;99.90;;;;;;5014679;28;20202;-53
2023/08/12 12:30:17;;;;;;;2.75;1.60;;;24.80;99.90;;;;;;5032144;28;20197;-52
2023/08/12 12:32:43;;;;;;;1.20;0.98;;;24.80;99.90;;;;;;5031627;28;20174;-51